Time;durP1;ratioP1;P1;durP2;ratioP2;P2;SDS_P1;SDS_P2;PMS_P1;PMS_P2;Temp;Humidity;BMP_temperature;BMP_pressure;BME280_temperature;BME280_humidity;BME280_pressure;Samples;Min_cycle;Max_cycle;Signal;HPM_P1;HPM_P2
2022/12/21 00:02:04;;;;;;;65.52;39.50;;;;;;;4.83;76.83;100850.04;1715589;81;21405;-82
2022/12/21 00:04:33;;;;;;;66.62;38.48;;;;;;;4.83;76.78;100846.55;1720760;81;21100;-82
2022/12/21 00:06:59;;;;;;;62.98;37.60;;;;;;;4.82;76.79;100839.14;1690759;82;22033;-82
2022/12/21 00:09:26;;;;;;;68.75;39.92;;;;;;;4.81;76.80;100839.06;1681234;83;21551;-83
2022/12/21 00:11:54;;;;;;;70.62;39.42;;;;;;;4.80;76.75;100835.95;1672041;84;21026;-83
2022/12/21 00:14:20;;;;;;;66.72;38.40;;;;;;;4.78;76.71;100829.77;1638655;86;21065;-84
2022/12/21 00:16:47;;;;;;;65.97;38.02;;;;;;;4.79;76.75;100827.66;1641870;85;21389;-84
2022/12/21 00:19:16;;;;;;;66.33;37.20;;;;;;;4.77;76.68;100823.67;1727563;81;21186;-85
2022/12/21 00:21:44;;;;;;;68.65;39.40;;;;;;;4.75;76.70;100822.70;1706810;82;21616;-86
2022/12/21 00:24:10;;;;;;;64.67;35.33;;;;;;;4.78;76.74;100812.81;1714461;81;21101;-85
2022/12/21 00:26:37;;;;;;;62.55;36.60;;;;;;;4.80;76.71;100806.84;1734776;80;21593;-85
2022/12/21 00:29:05;;;;;;;66.40;37.55;;;;;;;4.79;76.63;100813.31;1761957;80;20976;-85
2022/12/21 00:31:35;;;;;;;67.10;38.78;;;;;;;4.80;76.73;100820.30;1767642;80;21734;-85
2022/12/21 00:34:02;;;;;;;67.27;38.23;;;;;;;4.79;76.72;100821.14;1741411;79;21066;-84
2022/12/21 00:36:29;;;;;;;67.32;37.67;;;;;;;4.78;76.71;100822.83;1721954;82;21045;-84
2022/12/21 00:38:56;;;;;;;68.62;38.45;;;;;;;4.78;76.75;100818.92;1743555;79;21110;-83
2022/12/21 00:41:26;;;;;;;63.68;37.60;;;;;;;4.79;76.81;100825.94;1732021;79;21058;-83
2022/12/21 00:43:54;;;;;;;64.62;36.93;;;;;;;4.77;76.80;100822.36;1730803;79;21775;-84
2022/12/21 00:46:27;;;;;;;61.10;35.25;;;;;;;4.78;76.79;100820.64;1761053;80;21143;-85
2022/12/21 00:48:55;;;;;;;66.50;38.00;;;;;;;4.76;76.81;100819.25;1762773;79;21093;-84
2022/12/21 00:51:23;;;;;;;61.70;37.80;;;;;;;4.74;76.79;100810.47;1744123;80;21046;-84
2022/12/21 00:53:49;;;;;;;63.98;36.20;;;;;;;4.75;76.87;100812.27;1732906;80;21038;-84
2022/12/21 00:56:18;;;;;;;63.00;38.17;;;;;;;4.75;76.87;100809.66;1748264;80;22577;-84
2022/12/21 00:58:47;;;;;;;59.27;37.05;;;;;;;4.76;76.89;100806.22;1748253;80;21435;-85
2022/12/21 01:01:23;;;;;;;64.60;37.38;;;;;;;4.77;76.89;100809.33;1766405;80;21618;-85
2022/12/21 01:03:50;;;;;;;61.92;35.78;;;;;;;4.78;76.89;100805.88;1711043;82;21483;-91
2022/12/21 01:06:20;;;;;;;63.05;35.85;;;;;;;4.78;76.94;100805.88;1731866;80;21066;-91
2022/12/21 01:08:48;;;;;;;57.38;35.68;;;;;;;4.80;76.91;100806.84;1708253;82;21938;-92
2022/12/21 01:11:16;;;;;;;66.97;37.45;;;;;;;4.81;76.85;100808.65;1706326;82;21069;-92
2022/12/21 01:13:44;;;;;;;63.38;37.05;;;;;;;4.82;76.89;100809.53;1665898;84;21459;-92
2022/12/21 01:16:25;;;;;;;62.27;37.53;;;;;;;4.77;76.81;100800.20;1657980;85;21169;-92
2022/12/21 01:18:52;;;;;;;62.85;35.92;;;;;;;4.75;76.89;100800.92;1685278;82;22002;-90
2022/12/21 01:21:21;;;;;;;66.80;37.55;;;;;;;4.72;76.95;100799.48;1712619;82;21764;-89
2022/12/21 01:23:48;;;;;;;64.07;37.85;;;;;;;4.68;77.05;100790.20;1678607;82;21124;-89
2022/12/21 01:26:16;;;;;;;63.85;37.33;;;;;;;4.65;77.16;100794.36;1694059;82;22283;-92
2022/12/21 01:28:42;;;;;;;63.35;37.67;;;;;;;4.63;77.32;100789.48;1686951;82;21080;-89
2022/12/21 01:31:15;;;;;;;67.53;38.25;;;;;;;4.63;77.40;100786.45;1688165;84;21618;-91
2022/12/21 01:33:42;;;;;;;64.17;37.83;;;;;;;4.63;77.49;100783.85;1675830;84;21810;-90
2022/12/21 01:36:14;;;;;;;62.25;37.20;;;;;;;4.62;77.52;100784.69;1678538;84;22228;-90
2022/12/21 01:38:41;;;;;;;69.15;37.38;;;;;;;4.64;77.62;100787.38;1673787;82;21081;-90
2022/12/21 01:41:18;;;;;;;64.85;38.98;;;;;;;4.65;77.67;100790.06;1684530;84;21633;-89
2022/12/21 01:43:52;;;;;;;64.80;37.78;;;;;;;4.63;77.64;100786.45;1699434;82;21543;-88
2022/12/21 01:46:41;;;;;;;61.05;36.20;;;;;;;4.62;77.70;100791.20;1717425;82;21761;-88
2022/12/21 01:49:27;;;;;;;65.70;37.90;;;;;;;4.60;77.75;100790.23;1714271;82;21109;-90
2022/12/21 01:52:04;;;;;;;71.82;38.10;;;;;;;4.58;77.81;100790.96;1638831;86;21098;-90
2022/12/21 01:54:36;;;;;;;65.10;37.55;;;;;;;4.55;77.86;100790.41;1677862;83;21129;-90
2022/12/21 01:57:07;;;;;;;65.47;38.90;;;;;;;4.52;77.88;100795.45;1645804;85;22187;-90
2022/12/21 01:59:37;;;;;;;64.75;37.48;;;;;;;4.47;77.94;100787.84;1687736;82;21821;-90
2022/12/21 02:02:08;;;;;;;66.15;38.30;;;;;;;4.47;78.09;100779.61;1694888;82;21058;-91
2022/12/21 02:04:34;;;;;;;65.32;37.95;;;;;;;4.51;78.19;100778.47;1693422;82;21589;-84
2022/12/21 02:07:01;;;;;;;66.12;38.50;;;;;;;4.50;78.17;100771.03;1711059;81;21047;-91
2022/12/21 02:09:34;;;;;;;63.90;36.50;;;;;;;4.51;78.30;100767.62;1665962;83;21078;-91
2022/12/21 02:12:03;;;;;;;63.77;36.67;;;;;;;4.54;78.34;100770.78;1689740;83;21822;-90
2022/12/21 02:14:32;;;;;;;65.45;37.23;;;;;;;4.54;78.34;100772.97;1667585;83;21081;-90
2022/12/21 02:17:22;;;;;;;64.10;37.28;;;;;;;4.55;78.37;100768.25;1692839;82;21063;-91
2022/12/21 02:20:33;;;;;;;65.87;35.88;;;;;;;4.55;78.43;100766.06;1688762;84;21146;-91
2022/12/21 02:23:30;;;;;;;62.93;35.92;;;;;;;4.58;78.41;100765.81;1687622;83;21077;-92
2022/12/21 02:26:18;;;;;;;63.92;36.30;;;;;;;4.59;78.48;100751.05;1700603;81;21705;-84
2022/12/21 02:28:59;;;;;;;66.17;37.70;;;;;;;4.58;78.52;100742.73;1681290;83;21057;-84
2022/12/21 02:31:43;;;;;;;63.13;36.25;;;;;;;4.58;78.58;100746.64;1693024;82;21102;-84
2022/12/21 02:34:31;;;;;;;62.45;35.60;;;;;;;4.57;78.67;100746.17;1694037;82;21153;-84
2022/12/21 02:37:15;;;;;;;61.90;36.33;;;;;;;4.56;78.72;100743.98;1690001;82;21158;-82
2022/12/21 02:40:01;;;;;;;;;;;;;;;4.54;78.73;100752.11;1697399;82;21776;-83
2022/12/21 02:45:45;;;;;;;63.85;36.00;;;;;;;4.47;78.83;100752.66;1699379;82;21039;-92
2022/12/21 02:48:24;;;;;;;64.95;36.15;;;;;;;4.45;78.96;100759.51;1703894;82;21046;-91
2022/12/21 02:50:55;;;;;;;57.53;35.23;;;;;;;4.43;79.08;100759.81;1704359;82;21961;-91
2022/12/21 02:53:26;;;;;;;59.10;35.50;;;;;;;4.45;79.24;100761.70;1668184;84;21752;-91
2022/12/21 02:55:53;;;;;;;65.83;36.68;;;;;;;4.48;79.24;100751.81;1686481;83;21045;-91
2022/12/21 02:58:23;;;;;;;63.25;37.05;;;;;;;4.45;79.24;100751.69;1709035;82;21086;-92
2022/12/21 03:01:12;;;;;;;56.13;34.53;;;;;;;4.46;79.35;100751.73;1705743;82;21054;-92
2022/12/21 03:04:30;;;;;;;60.55;35.60;;;;;;;4.48;79.39;100748.80;1706541;83;21046;-91
2022/12/21 03:07:36;;;;;;;57.73;34.18;;;;;;;4.48;79.41;100746.19;1706187;82;21792;-92
2022/12/21 03:10:16;;;;;;;60.10;34.30;;;;;;;4.51;79.49;100739.37;1754893;80;21116;-91
2022/12/21 03:13:10;;;;;;;53.90;33.10;;;;;;;4.52;79.51;100728.11;1739161;80;21039;-90
2022/12/21 03:16:17;;;;;;;56.98;33.90;;;;;;;4.55;79.63;100720.03;1724441;80;21160;-91
2022/12/21 03:19:07;;;;;;;54.88;33.42;;;;;;;4.61;79.65;100724.64;1698897;82;21629;-91
2022/12/21 03:21:49;;;;;;;56.05;32.45;;;;;;;4.59;79.55;100728.47;1747316;80;21776;-90
2022/12/21 03:24:33;;;;;;;57.55;32.93;;;;;;;4.63;79.65;100726.50;1739925;80;21442;-91
2022/12/21 03:27:10;;;;;;;63.15;38.35;;;;;;;4.65;79.63;100717.45;1742220;80;21117;-90
2022/12/21 03:29:42;;;;;;;67.80;40.90;;;;;;;4.66;79.63;100723.16;1728444;80;21108;-91
2022/12/21 03:32:13;;;;;;;62.27;37.53;;;;;;;4.69;79.64;100732.41;1701835;82;21578;-89
2022/12/21 03:34:42;;;;;;;59.23;35.60;;;;;;;4.69;79.54;100724.59;1698245;83;21786;-89
2022/12/21 03:37:21;;;;;;;58.63;36.63;;;;;;;4.70;79.56;100723.79;1691421;83;21084;-91
2022/12/21 03:39:56;;;;;;;63.15;35.75;;;;;;;4.70;79.56;100717.69;1735527;80;21042;-90
2022/12/21 03:42:25;;;;;;;62.67;38.13;;;;;;;4.68;79.60;100711.97;1731494;80;22653;-91
2022/12/21 03:45:04;;;;;;;62.88;36.38;;;;;;;4.71;79.66;100712.55;1732215;80;21082;-90
2022/12/21 03:47:45;;;;;;;64.30;37.75;;;;;;;4.71;79.57;100709.03;1705470;83;21411;-90
2022/12/21 03:50:18;;;;;;;60.95;37.13;;;;;;;4.65;79.54;100712.23;1693025;83;21475;-89
2022/12/21 03:52:53;;;;;;;63.85;36.08;;;;;;;4.64;79.63;100703.53;1678892;83;21081;-90
2022/12/21 03:55:26;;;;;;;62.43;36.45;;;;;;;4.63;79.72;100703.45;1745628;80;21053;-93
2022/12/21 03:57:53;;;;;;;61.25;36.30;;;;;;;4.62;79.71;100708.20;1718225;82;21065;-90
2022/12/21 04:00:20;;;;;;;60.80;36.03;;;;;;;4.62;79.79;100716.02;1677600;83;21284;-91
2022/12/21 04:03:07;;;;;;;64.05;38.08;;;;;;;4.63;79.83;100723.89;1686258;83;21296;-90
2022/12/21 04:05:56;;;;;;;59.38;35.38;;;;;;;4.62;79.84;100719.52;1692411;83;21097;-90
2022/12/21 04:08:23;;;;;;;58.00;34.67;;;;;;;4.60;79.86;100726.37;1692986;82;21069;-90
2022/12/21 04:10:50;;;;;;;59.83;35.38;;;;;;;4.61;79.99;100719.44;1736483;80;21097;-91
2022/12/21 04:13:17;;;;;;;65.20;37.67;;;;;;;4.65;80.08;100707.94;1744996;80;22620;-90
2022/12/21 04:21:16;;;;;;;62.10;35.55;;;;;;;4.69;79.98;100697.22;1748000;80;21038;-91
2022/12/21 04:29:14;;;;;;;61.98;34.90;;;;;;;4.78;80.07;100695.47;1729590;81;21033;-91
2022/12/21 04:31:41;;;;;;;60.48;35.48;;;;;;;4.84;80.10;100690.53;1763428;80;21034;-92
2022/12/21 04:34:08;;;;;;;61.05;34.10;;;;;;;4.87;80.03;100689.38;1753278;80;21409;-92
2022/12/21 04:39:20;;;;;;;61.13;34.73;;;;;;;4.91;79.92;100687.81;1701311;82;21454;-92
2022/12/21 04:41:47;;;;;;;65.87;36.63;;;;;;;4.94;79.88;100682.33;1694504;83;21563;-91
2022/12/21 04:44:14;;;;;;;59.93;36.33;;;;;;;4.95;79.87;100685.83;1645641;85;21580;-91
2022/12/21 04:46:47;;;;;;;58.42;35.05;;;;;;;4.94;79.85;100683.64;1637440;87;21079;-93
2022/12/21 04:49:13;;;;;;;59.63;34.97;;;;;;;4.95;79.91;100680.61;1644252;86;21046;-92
2022/12/21 04:51:40;;;;;;;62.30;36.58;;;;;;;4.93;79.78;100681.84;1669510;82;21773;-92
2022/12/21 04:54:07;;;;;;;66.15;37.75;;;;;;;4.92;79.83;100679.15;1679077;82;21081;-93
2022/12/21 04:56:34;;;;;;;59.95;34.53;;;;;;;4.90;79.85;100669.98;1690987;82;21076;-89
2022/12/21 04:59:01;;;;;;;62.15;35.63;;;;;;;4.92;79.93;100663.50;1709810;82;21547;-92
2022/12/21 05:01:27;;;;;;;61.10;35.17;;;;;;;4.93;79.93;100661.39;1712556;82;21046;-92
2022/12/21 05:03:57;;;;;;;58.17;34.70;;;;;;;4.93;79.88;100662.69;1693753;82;22602;-90
2022/12/21 05:06:25;;;;;;;64.47;36.75;;;;;;;4.94;79.91;100669.71;1718613;82;21047;-93
2022/12/21 05:08:52;;;;;;;59.13;35.78;;;;;;;4.93;79.86;100664.00;1702992;82;21493;-91
2022/12/21 05:11:23;;;;;;;66.25;36.10;;;;;;;4.90;79.80;100666.06;1696770;82;21216;-91
2022/12/21 05:13:51;;;;;;;60.65;34.53;;;;;;;4.87;79.86;100669.41;1698839;82;21105;-92
2022/12/21 05:16:22;;;;;;;60.55;34.38;;;;;;;4.89;79.90;100668.59;1707127;82;21799;-92
2022/12/21 05:18:50;;;;;;;61.85;35.40;;;;;;;4.89;79.90;100673.81;1732920;81;21071;-89
2022/12/21 05:21:19;;;;;;;63.58;35.68;;;;;;;4.91;79.97;100674.77;1742131;81;21022;-91
2022/12/21 05:23:46;;;;;;;57.05;33.73;;;;;;;4.91;79.94;100670.86;1691186;83;21085;-91
2022/12/21 05:26:13;;;;;;;62.98;35.55;;;;;;;4.91;79.99;100669.56;1670222;84;21692;-93
2022/12/21 05:28:40;;;;;;;65.83;36.05;;;;;;;4.94;80.06;100669.30;1689064;82;21276;-90
2022/12/21 05:31:07;;;;;;;62.55;34.60;;;;;;;4.97;80.09;100664.61;1703995;83;21066;-89
2022/12/21 05:33:34;;;;;;;59.53;34.75;;;;;;;4.98;79.97;100661.20;1709029;82;21042;-90
2022/12/21 05:36:13;;;;;;;61.53;35.68;;;;;;;4.96;79.97;100661.55;1702180;83;21064;-91
2022/12/21 05:38:40;;;;;;;67.65;37.30;;;;;;;4.94;79.93;100652.34;1697958;82;21078;-88
2022/12/21 05:41:07;;;;;;;62.20;36.25;;;;;;;4.94;80.00;100663.19;1708581;82;21974;-87
2022/12/21 05:43:34;;;;;;;59.53;34.92;;;;;;;4.93;79.99;100660.09;1697247;82;21116;-88
2022/12/21 05:46:04;;;;;;;63.33;36.03;;;;;;;4.94;80.01;100670.59;1714762;80;21070;-87
2022/12/21 05:48:31;;;;;;;63.00;35.58;;;;;;;4.94;80.00;100665.80;1712712;82;21570;-91
2022/12/21 05:50:58;;;;;;;66.97;36.03;;;;;;;4.91;79.91;100669.14;1708911;81;21098;-90
2022/12/21 05:53:25;;;;;;;63.90;35.28;;;;;;;4.90;80.03;100668.67;1683338;84;22147;-90
2022/12/21 05:55:52;;;;;;;64.85;36.30;;;;;;;4.95;80.10;100666.27;1687363;84;21077;-89
2022/12/21 05:58:21;;;;;;;62.60;35.92;;;;;;;4.95;79.97;100666.27;1685688;83;21096;-88
2022/12/21 06:00:52;;;;;;;63.00;36.10;;;;;;;4.94;79.99;100659.28;1692640;83;21076;-87
2022/12/21 06:03:17;;;;;;;60.52;34.63;;;;;;;4.95;79.95;100653.22;1689195;82;21061;-87
2022/12/21 06:05:43;;;;;;;63.45;36.20;;;;;;;4.95;79.89;100661.05;1687711;83;21748;-91
2022/12/21 06:08:10;;;;;;;64.37;37.25;;;;;;;4.94;79.88;100667.10;1679779;83;22286;-92
2022/12/21 06:10:37;;;;;;;61.35;37.05;;;;;;;4.92;79.88;100664.42;1686270;83;21110;-91
2022/12/21 06:13:04;;;;;;;70.52;39.25;;;;;;;4.92;79.93;100667.03;1693994;82;21224;-87
2022/12/21 06:15:33;;;;;;;78.42;42.60;;;;;;;4.95;79.97;100661.93;1688326;82;21550;-90
2022/12/21 06:18:00;;;;;;;90.07;52.58;;;;;;;4.96;79.88;100669.37;1661641;84;21780;-91
2022/12/21 06:20:37;;;;;;;68.85;42.67;;;;;;;4.93;79.86;100660.97;1674515;82;21077;-92
2022/12/21 06:23:03;;;;;;;79.62;50.20;;;;;;;4.91;79.82;100658.70;1677356;84;21070;-91
2022/12/21 06:25:31;;;;;;;88.37;49.18;;;;;;;4.87;79.85;100658.97;1686776;82;21581;-94
2022/12/21 06:27:59;;;;;;;83.72;51.23;;;;;;;4.88;79.85;100665.10;1705959;82;21493;-93
2022/12/21 06:30:26;;;;;;;111.55;63.65;;;;;;;4.86;79.91;100670.24;1712310;82;21754;-91
2022/12/21 06:32:52;;;;;;;84.92;50.95;;;;;;;4.87;79.90;100667.22;1678905;83;21100;-92
2022/12/21 06:35:19;;;;;;;97.65;59.58;;;;;;;4.86;79.88;100674.16;1675286;83;21060;-91
2022/12/21 06:37:46;;;;;;;80.15;49.75;;;;;;;4.86;79.93;100681.98;1708440;82;21105;-90
2022/12/21 06:40:16;;;;;;;101.50;59.65;;;;;;;4.85;79.90;100674.08;1680223;83;22186;-91
2022/12/21 06:42:44;;;;;;;132.57;84.35;;;;;;;4.85;79.99;100674.96;1662392;84;22437;-90
2022/12/21 06:45:11;;;;;;;100.70;62.27;;;;;;;4.84;79.86;100675.80;1695886;83;21050;-90
2022/12/21 06:47:38;;;;;;;104.53;64.27;;;;;;;4.82;79.90;100670.01;1704637;81;21077;-90
2022/12/21 06:50:08;;;;;;;87.17;52.00;;;;;;;4.80;79.93;100666.02;1715590;81;21948;-90
2022/12/21 06:52:34;;;;;;;105.10;64.58;;;;;;;4.81;79.95;100669.12;1729847;80;21025;-89
2022/12/21 06:55:01;;;;;;;107.15;68.07;;;;;;;4.81;79.90;100674.34;1759224;80;22813;-89
2022/12/21 06:57:31;;;;;;;106.95;69.00;;;;;;;4.78;79.92;100674.19;1740589;80;21594;-83
2022/12/21 06:59:58;;;;;;;82.90;51.33;;;;;;;4.81;80.00;100674.77;1701464;82;22261;-84
2022/12/21 07:02:25;;;;;;;113.05;69.67;;;;;;;4.83;80.03;100679.22;1711854;82;21077;-90
2022/12/21 07:04:53;;;;;;;91.45;59.42;;;;;;;4.85;80.02;100682.78;1708859;82;21054;-90
2022/12/21 07:07:20;;;;;;;79.47;47.50;;;;;;;4.85;79.96;100680.17;1703830;83;21215;-90
2022/12/21 07:09:47;;;;;;;124.40;74.20;;;;;;;4.86;79.99;100681.06;1727256;82;21046;-83
2022/12/21 07:12:14;;;;;;;106.63;64.30;;;;;;;4.85;79.95;100677.56;1707522;82;21058;-83
2022/12/21 07:14:43;;;;;;;112.37;78.12;;;;;;;4.87;80.02;100673.31;1714438;82;21399;-84
2022/12/21 07:17:10;;;;;;;144.50;91.32;;;;;;;4.90;80.01;100676.88;1684599;82;21048;-90
2022/12/21 07:19:37;;;;;;;88.20;56.40;;;;;;;4.92;80.00;100681.76;1695269;82;22432;-90
2022/12/21 07:22:04;;;;;;;96.53;61.05;;;;;;;4.92;80.00;100678.77;1701974;82;21083;-90
2022/12/21 07:24:31;;;;;;;80.67;49.95;;;;;;;4.93;79.91;100678.34;1696106;82;21073;-90
2022/12/21 07:26:59;;;;;;;68.05;42.65;;;;;;;4.93;79.94;100679.65;1714197;81;21597;-84
2022/12/21 07:29:25;;;;;;;76.82;46.20;;;;;;;4.95;80.03;100678.00;1682338;84;21108;-83
2022/12/21 07:31:52;;;;;;;65.70;42.55;;;;;;;4.97;80.04;100688.97;1635352;86;22552;-84
2022/12/21 07:34:19;;;;;;;68.75;41.20;;;;;;;4.93;79.89;100679.65;1661948;85;21471;-83
2022/12/21 07:36:46;;;;;;;69.47;43.40;;;;;;;4.92;79.88;100686.97;1646143;86;21076;-84
2022/12/21 07:39:12;;;;;;;64.47;40.67;;;;;;;4.89;79.98;100682.52;1667925;85;21040;-83
2022/12/21 07:41:39;;;;;;;64.25;40.25;;;;;;;4.89;80.00;100683.83;1706125;82;21791;-83
2022/12/21 07:44:06;;;;;;;64.70;35.45;;;;;;;4.91;80.11;100682.60;1719370;82;21769;-83
2022/12/21 07:46:33;;;;;;;60.80;34.92;;;;;;;4.93;80.11;100678.34;1703256;82;21068;-90
2022/12/21 07:49:00;;;;;;;81.95;48.73;;;;;;;4.95;80.15;100680.19;1701390;82;21047;-83
2022/12/21 07:51:26;;;;;;;72.50;45.60;;;;;;;4.98;80.08;100684.26;1710086;82;21945;-90
2022/12/21 07:53:53;;;;;;;106.32;61.18;;;;;;;4.97;79.99;100681.15;1701167;82;21576;-83
2022/12/21 07:56:20;;;;;;;115.95;71.15;;;;;;;4.95;79.89;100683.22;1714819;82;22747;-83
2022/12/21 07:58:47;;;;;;;139.05;90.60;;;;;;;4.94;80.04;100678.42;1699847;82;21639;-83
2022/12/21 08:01:16;;;;;;;129.80;82.95;;;;;;;4.97;80.03;100679.84;1695346;82;21165;-92
2022/12/21 08:03:44;;;;;;;97.53;60.52;;;;;;;5.01;80.12;100674.36;1708159;82;21148;-84
2022/12/21 08:06:11;;;;;;;89.83;54.33;;;;;;;5.04;80.01;100688.86;1711692;82;21124;-84
2022/12/21 08:08:38;;;;;;;176.50;90.20;;;;;;;5.05;80.00;100691.97;1698730;82;21861;-84
2022/12/21 08:11:07;;;;;;;202.85;98.10;;;;;;;5.07;80.09;100692.93;1690925;83;21720;-84
2022/12/21 08:13:34;;;;;;;142.62;76.75;;;;;;;5.12;80.05;100685.30;1709469;82;21527;-90
2022/12/21 08:16:05;;;;;;;112.47;66.40;;;;;;;5.16;80.02;100684.61;1695770;84;21065;-90
2022/12/21 08:18:32;;;;;;;78.25;48.63;;;;;;;5.16;79.89;100689.44;1696672;82;21138;-89
2022/12/21 08:20:59;;;;;;;109.80;64.60;;;;;;;5.16;79.78;100685.91;1696547;82;21711;-90
2022/12/21 08:23:26;;;;;;;95.20;56.98;;;;;;;5.14;79.81;100681.92;1696568;82;21108;-90
2022/12/21 08:25:53;;;;;;;90.22;54.40;;;;;;;5.17;79.79;100689.91;1673856;85;21114;-90
2022/12/21 08:28:22;;;;;;;95.85;58.40;;;;;;;5.20;79.74;100690.45;1649087;85;21094;-91
2022/12/21 08:30:49;;;;;;;124.55;69.17;;;;;;;5.20;79.68;100692.67;1646468;82;22070;-85
2022/12/21 08:33:16;;;;;;;92.40;53.42;;;;;;;5.19;79.65;100690.86;1643645;85;21824;-83
2022/12/21 08:35:45;;;;;;;121.50;68.28;;;;;;;5.20;79.58;100693.05;1668858;83;21135;-84
2022/12/21 08:38:13;;;;;;;101.70;54.10;;;;;;;5.20;79.57;100691.36;1670031;84;21972;-84
2022/12/21 08:40:39;;;;;;;171.32;83.30;;;;;;;5.24;79.58;100693.70;1701934;82;21087;-84
2022/12/21 08:43:06;;;;;;;191.45;88.65;;;;;;;5.23;79.44;100693.20;1696961;82;21085;-84
2022/12/21 08:45:33;;;;;;;133.37;64.27;;;;;;;5.23;79.47;100695.39;1695772;84;21810;-84
2022/12/21 08:48:00;;;;;;;209.03;89.45;;;;;;;5.24;79.48;100691.09;1679955;84;21526;-84
2022/12/21 08:50:26;;;;;;;233.10;91.00;;;;;;;5.28;79.49;100694.73;1667478;84;21641;-84
2022/12/21 08:52:53;;;;;;;209.35;83.40;;;;;;;5.30;79.38;100694.39;1685651;83;21142;-84
2022/12/21 08:55:20;;;;;;;190.60;88.42;;;;;;;5.28;79.36;100694.31;1658934;82;21095;-84
2022/12/21 08:57:47;;;;;;;125.33;65.32;;;;;;;5.27;79.32;100688.59;1684193;81;21750;-84
2022/12/21 09:00:14;;;;;;;125.95;64.22;;;;;;;5.25;79.30;100689.86;1645723;85;21094;-83
2022/12/21 09:02:42;;;;;;;93.12;49.85;;;;;;;5.25;79.35;100696.77;1653176;84;21077;-85
2022/12/21 09:05:11;;;;;;;292.05;119.85;;;;;;;5.28;79.38;100692.13;1696906;83;21087;-83
2022/12/21 09:07:44;;;;;;;134.18;61.75;;;;;;;5.32;79.44;100696.66;1691768;83;21979;-83
2022/12/21 09:10:11;;;;;;;203.00;97.72;;;;;;;5.36;79.46;100695.97;1726504;81;21764;-83
2022/12/21 09:12:38;;;;;;;146.13;74.80;;;;;;;5.39;79.47;100698.30;1721725;81;21421;-83
2022/12/21 09:15:07;;;;;;;246.70;123.45;;;;;;;5.43;79.39;100709.78;1709847;81;20987;-83
2022/12/21 09:17:34;;;;;;;193.07;102.70;;;;;;;5.44;79.30;100712.85;1730533;78;21037;-88
2022/12/21 09:20:01;;;;;;;122.58;66.25;;;;;;;5.43;79.24;100708.47;1750783;79;21008;-83
2022/12/21 09:22:28;;;;;;;130.37;71.65;;;;;;;5.44;79.25;100714.16;1705845;81;23168;-83
2022/12/21 09:24:55;;;;;;;124.02;67.55;;;;;;;5.45;79.25;100720.76;1737362;80;21713;-83
2022/12/21 09:27:22;;;;;;;94.77;59.75;;;;;;;5.43;79.24;100723.72;1720633;81;21066;-84
2022/12/21 09:29:48;;;;;;;135.50;82.57;;;;;;;5.45;79.23;100714.66;1731341;80;21051;-84
2022/12/21 09:32:15;;;;;;;188.50;110.28;;;;;;;5.44;79.26;100703.33;1684973;82;22021;-83
2022/12/21 09:34:42;;;;;;;151.95;95.45;;;;;;;5.47;79.26;100701.25;1685069;82;23175;-83
2022/12/21 09:37:09;;;;;;;157.70;104.07;;;;;;;5.51;79.30;100702.28;1719487;82;21036;-83
2022/12/21 09:39:37;;;;;;;128.55;83.30;;;;;;;5.54;79.23;100695.91;1702670;82;21081;-83
2022/12/21 09:42:32;;;;;;;94.50;65.87;;;;;;;5.59;79.27;100695.28;1727176;81;21776;-89
2022/12/21 09:45:10;;;;;;;109.25;74.87;;;;;;;5.64;79.17;100695.05;1744282;79;21073;-82
2022/12/21 09:47:45;;;;;;;70.12;48.08;;;;;;;5.66;79.03;100691.20;1760729;80;22752;-89
2022/12/21 09:50:18;;;;;;;65.40;46.55;;;;;;;5.67;78.94;100685.17;1738103;79;21081;-89
2022/12/21 09:52:48;;;;;;;56.33;41.20;;;;;;;5.70;78.98;100685.28;1766885;80;21141;-89
2022/12/21 09:55:19;;;;;;;65.03;45.10;;;;;;;5.72;78.89;100684.05;1688870;82;21636;-83
2022/12/21 09:57:49;;;;;;;67.82;48.65;;;;;;;5.72;78.88;100667.96;1640756;85;21548;-89
2022/12/21 10:00:20;;;;;;;121.15;71.55;;;;;;;5.72;78.78;100669.27;1712661;82;21937;-83
2022/12/21 10:03:15;;;;;;;100.35;65.78;;;;;;;5.69;78.74;100675.69;1709325;82;21114;-83
2022/12/21 10:06:10;;;;;;;85.10;58.02;;;;;;;5.68;78.67;100669.08;1733024;80;21092;-83
2022/12/21 10:08:57;;;;;;;85.97;56.77;;;;;;;5.64;78.71;100657.61;1754650;80;21034;-91
2022/12/21 10:12:05;;;;;;;56.10;37.98;;;;;;;5.63;78.70;100663.64;1747078;80;21069;-88
2022/12/21 10:15:10;;;;;;;66.42;44.50;;;;;;;5.62;78.69;100674.94;1759332;80;21779;-91
2022/12/21 10:17:59;;;;;;;60.25;38.02;;;;;;;5.63;78.79;100664.95;1728623;80;21121;-91
2022/12/21 10:20:41;;;;;;;53.75;37.35;;;;;;;5.64;78.79;100661.11;1729292;81;21061;-90
2022/12/21 10:23:26;;;;;;;53.08;35.28;;;;;;;5.70;78.82;100664.81;1747901;80;21514;-90
2022/12/21 10:25:59;;;;;;;104.70;74.27;;;;;;;5.74;78.94;100668.03;1700852;83;21068;-88
2022/12/21 10:29:01;;;;;;;74.92;54.65;;;;;;;5.82;78.87;100658.83;1685166;82;21783;-90
2022/12/21 10:31:45;;;;;;;53.65;39.98;;;;;;;5.84;78.75;100658.48;1672434;83;21150;-90
2022/12/21 10:34:29;;;;;;;57.33;42.65;;;;;;;5.76;78.69;100644.17;1746380;80;21021;-90
2022/12/21 10:37:00;;;;;;;87.62;68.40;;;;;;;5.87;78.68;100666.42;1758786;80;21048;-89
2022/12/21 10:39:34;;;;;;;94.83;75.20;;;;;;;5.90;78.69;100667.87;1732837;81;21455;-89
2022/12/21 10:42:06;;;;;;;;;;;;;;;5.99;78.76;100670.91;1748992;79;21765;-89
2022/12/21 10:44:35;;;;;;;66.72;54.63;;;;;;;6.04;78.58;100677.62;1708002;82;20281;-84
2022/12/21 10:47:14;;;;;;;47.03;39.98;;;;;;;6.09;78.52;100673.91;1746045;80;21253;-84
2022/12/21 10:49:42;;;;;;;44.90;38.42;;;;;;;6.12;78.44;100680.16;1751047;79;21469;-84
2022/12/21 10:52:32;;;;;;;40.17;31.33;;;;;;;6.15;78.42;100668.50;1757677;79;21027;-83
2022/12/21 10:54:59;;;;;;;37.93;28.15;;;;;;;6.20;78.46;100680.05;1750864;80;21709;-84
2022/12/21 10:57:28;;;;;;;40.48;30.95;;;;;;;6.30;78.43;100680.01;1759384;79;22138;-83
2022/12/21 10:59:55;;;;;;;41.33;31.17;;;;;;;6.33;78.31;100678.84;1719545;81;21077;-83
2022/12/21 11:02:42;;;;;;;38.78;28.27;;;;;;;6.37;78.16;100679.86;1735916;80;21524;-84
2022/12/21 11:05:34;;;;;;;40.60;29.63;;;;;;;6.34;78.00;100674.07;1730082;80;21310;-84
2022/12/21 11:08:21;;;;;;;49.25;32.00;;;;;;;6.31;77.92;100666.12;1739383;80;21756;-83
2022/12/21 11:10:51;;;;;;;47.20;32.25;;;;;;;6.26;77.86;100666.34;1760802;79;21058;-83
2022/12/21 11:13:19;;;;;;;42.13;29.92;;;;;;;6.23;77.93;100668.42;1718761;82;21606;-82
2022/12/21 11:16:10;;;;;;;43.42;31.33;;;;;;;6.24;77.98;100670.62;1703671;83;21506;-83
2022/12/21 11:18:37;;;;;;;37.98;25.20;;;;;;;6.28;78.12;100675.56;1670255;83;20979;-83
2022/12/21 11:21:13;;;;;;;37.28;25.95;;;;;;;6.35;78.11;100664.10;1708657;82;21736;-83
2022/12/21 11:23:40;;;;;;;38.20;25.23;;;;;;;6.37;78.08;100666.36;1715105;82;20978;-84
2022/12/21 11:26:14;;;;;;;35.35;25.88;;;;;;;6.39;77.96;100665.13;1708000;82;20966;-89
2022/12/21 11:28:42;;;;;;;39.55;29.10;;;;;;;6.42;78.05;100657.41;1724842;82;21646;-89
2022/12/21 11:31:10;;;;;;;37.25;26.73;;;;;;;6.47;78.07;100666.73;1685977;82;21064;-89
2022/12/21 11:33:37;;;;;;;34.83;25.68;;;;;;;6.52;78.06;100666.09;1673440;84;21986;-89
2022/12/21 11:36:15;;;;;;;41.55;29.05;;;;;;;6.52;77.95;100662.59;1696625;82;21177;-89
2022/12/21 11:38:42;;;;;;;37.67;25.90;;;;;;;6.51;77.90;100662.98;1691377;82;21149;-89
2022/12/21 11:41:20;;;;;;;33.98;25.00;;;;;;;6.50;77.88;100662.52;1708495;82;21566;-90
2022/12/21 11:43:49;;;;;;;34.10;26.15;;;;;;;6.53;77.91;100657.42;1663214;84;21069;-89
2022/12/21 11:46:31;;;;;;;32.20;21.80;;;;;;;6.51;77.76;100658.17;1737754;80;21803;-90
2022/12/21 11:49:41;;;;;;;36.40;25.02;;;;;;;6.50;77.83;100657.72;1747676;80;21089;-89
2022/12/21 11:52:26;;;;;;;41.02;27.80;;;;;;;6.52;77.79;100656.05;1728071;80;21480;-89
2022/12/21 11:55:04;;;;;;;43.17;29.45;;;;;;;6.53;77.87;100651.28;1688325;83;21439;-89
2022/12/21 11:58:16;;;;;;;33.60;25.08;;;;;;;6.58;77.88;100656.28;1703187;83;21134;-89